Crash = Arrived?


#1

N26399 crashed before landing yesterday, killing the pilot. I see the system says it “arrived”, is there a way around that designation, or is that all the info your side can get?

NOTIFICATION REPORT
NATIONAL WEATHER SERVICE BURLINGTON VT
739 PM EST TUE NOV 22 2005

TO: FORENSIC SERVICES MANAGER (W/OS52)
NATIONAL WEATHER SERVICE
C/O TELECOMMUNICATIONS GATEWAY
SILVER SPRING, MARYLAND 20910

INFO: EASTERN REGION (ATTN: W/ER1X2)

ALPHA: PILOT…UNKN
ACFT TYPE…PIPER ASTEC - TWIN ENGINE
REG NMBR…N26399

BRAVO: LOCATION…2S RWY33 KBTV (WILLISTON, VT)
DATE…11/22/05
INCIDENT TIME…2345 UTC

CHARLIE: 1 ABOARD: 1 FATALITIES.

DELTA: BURLINGTON INTERNATIONAL AIRPORT
SPECI KBTV 230002Z 32017G24KT 1SM -SN BR SCT007 BKN011 OVC023 M01/M02
A2913 RMK AO2 P0000
METAR KBTV 222354Z 32015G23KT 1SM -SN BR BKN009 BKN014 OVC022 M01/M02
A2913 RMK AO2 PK WND 33028/2259 CIG 005V011 SLP867 60031
P0001 SNINCR 1/3 T10111017 10039 21011 53016
SPECI KBTV 222343Z 31014G21KT 1SM -SN BR BKN009 OVC016 M01/M02 A2913 RMK
AO2 PK WND 33028/2259 CIG 005V012 P0001
SPECI KBTV 222333Z 31013G22KT 3/4SM -SN BR BKN009 OVC017 M01/M02 A2912
RMK AO2 PK WND 33028/2259 CIG 005V011 P0001
METAR KBTV 222254Z 32019G28KT 3/4SM -SN BR BKN007 OVC015 M01/M01 A2911
RMK AO2 PK WND 34034/2218 SLP859 SNINCR 1/2 P0001
T10111011

ECHO:
TAFBTV
TAF
KBTV 222328Z 230024 32018G30KT 2SM -SN BLSN SCT007 OVC020
TEMPO 0002 1/2SM SN BLSN BKN005
FM0400 31015G28KT P6SM OVC025
TEMPO 0406 2SM -SHSN BLSN BKN015
FM0600 30013G25KT P6SM OVC030
FM1000 32010G18KT P6SM BKN030
TEMPO 1014 SCT030
FM1400 29006KT P6SM SCT035=
KBTV 222055Z 222118 33018G28KT 1SM -SN BR OVC010
TEMPO 2124 1/2SM SN BLSN OVC005
FM0000 33015G25KT 2SM -SN BR OVC005
FM0600 31016G25KT P6SM -SN OVC022
FM0900 32013KT P6SM SCT015 OVC030
FM1300 29010KT P6SM SCT020 BKN035

FOXTROT: WINDS ALOFT BASED ON CXX RADAR
1000 FT WND 31628 KTS
2000 FT WND 31637 KTS
3000 FT WND 32438 KTS

GOLF:
WAUS41 KKCI 222045
WA1S
BOSS WA 222045
AIRMET SIERRA UPDT 4 FOR IFR AND MTN OBSCN VALID UNTIL 230300
.
AIRMET IFR…ME NH VT MA CT RI NY AND CSTL WTRS
FROM 70NW PQI TO 50ENE PQI TO 150ENE ACK TO JFK TO 20WSW SYR TO
MSS TO YSC TO 70NW PQI
WDSPRD CIG BLW 010 AND/OR VIS BLW 3SM PCPN/BR/FG. CONDS ENG 03Z.
.
AIRMET MTN OBSCN…ME NH VT MA NY PA WV VA MD
FROM 70ESE YQB TO MLT TO CON TO 20NNW SAX TO HAR TO 30NNW GSO TO
HMV TO HNN TO EWC TO JHW TO SYR TO MSS TO 30ESE YSC TO 70ESE YQB
MTNS OCNL OBSC CLDS/PCPN/FG/BR. CONDS CONTG BYD 03Z AND ENDG 09Z.

WAUS41 KKCI 222045
WA1T
BOST WA 222045
AIRMET TANGO UPDT 3 FOR TURB AND LLWS VALID UNTIL 230300
.
AIRMET TURB…ME NH VT NY MA CT RI PA NJ DE MD DC WV VA AND CSTL
WTRS
FROM 70NW PQI TO 40NE PQI TO 70SW YSJ TO ACK TO ECG TO HMV TO HNN
TO MSS TO YSC TO 70NW PQI
OCNL MOD TURB BLW 140 DUE MOD-STG NWLY LO LVL WND…SPCLY INVOF
RUFF TERRAIN. CONDS CONTG BYD 03Z THRU 09Z.
.
LLWS POTENTIAL OVR ME NH VT CT RI NY PA NJ DUE TO STG SFC WNDS.
CONDS CONTG BYD 03 ENDG 09Z.

WAUS41 KKCI 222045
WA1Z
BOSZ WA 222045
AIRMET ZULU UPDT 4 FOR ICE AND FRZLVL VALID UNTIL 230300
.
AIRMET ICE…NY PA NJ OH WV VA MD DE DC LE LO
FROM 60N SYR TO JFK TO 20ESE ECG TO HMV TO HNN TO CVG TO FWA TO
20NNW DXO TO YYZ TO 60N SYR
OCNL MOD RIME OR MXD ICGICIP BTN FRZLVL AND 100. FRZLVL AT OR NR
SFC W OF ORF-JFK-ALB-PLB. CONDS END 03Z.
.
AIRMET ICE…ME NH VT NY MA CT RI
FROM 70NW PQI TO 30ENE PQI TO 60SW YSJ TO ACK TO JFK TO 60N SYR
TO MSS TO YSC TO 70NW PQI
OCNL MOD RIME/MXD ICGICIP BTN FRZLVL AND FL240. FRZLVL SFC-040 W
OF ORF-JFK-ALB-PLB. CONDS CONDS CONT BYD 03Z THRU 09Z.
.
FRZLVL…SFC-040 W OF ECG-JFK-ALB-MPV-YSC
040-080 W OF HTO-CON-PQI
080-120 E OF THAT LN

HOTEL: WEATHER BRIEFING/DOCUMENTATION BY UNKN

PREPARED BY
WHITTIER/BURLINGTON VT


#2

In the unfortunate situation where an aircraft has been involved in an accident and will not be arriving, FlightAware will generally mark the flight “Arrived” sometime after the accident based on information that we receive from the FAA. The method of communcation that FlightAware currently uses to receive flight information does not currently support an exception notification.


#3

N666DE was a fatal crash this morning - when I checked I see the flight plan was from July but based on the track that was where it crashed today. Does that mean it was tracked but did not file a plan?

  • Rob

#4

Perhaps, although un-departed flight plans are not displayed, so if the aircraft departed before picking up their clearance or something, it’s possible that they filed IFR.